createdAt,value
2023-05-02T00:00:49.707Z,87.06
2023-05-02T00:01:49.719Z,87.06
2023-05-02T00:02:49.763Z,87.37
2023-05-02T00:03:49.716Z,87.67
2023-05-02T00:04:49.642Z,87.37
2023-05-02T00:05:49.635Z,87.92
2023-05-02T00:06:49.746Z,88.28
2023-05-02T00:07:49.625Z,88.08
2023-05-02T00:08:49.603Z,88.08
2023-05-02T00:09:49.597Z,87.98
2023-05-02T00:10:49.594Z,88.18
2023-05-02T00:11:49.574Z,88.18
2023-05-02T00:12:49.555Z,88.08
2023-05-02T00:13:49.555Z,87.98
2023-05-02T00:14:49.564Z,88.49
2023-05-02T00:15:49.515Z,88.28
2023-05-02T00:16:49.550Z,88.18
2023-05-02T00:17:49.550Z,88.08
2023-05-02T00:18:49.528Z,88.08
2023-05-02T00:19:49.497Z,87.88
2023-05-02T00:20:49.474Z,87.67
2023-05-02T00:21:49.475Z,88.08
2023-05-02T00:22:49.439Z,88.28
2023-05-02T00:23:49.456Z,88.49
2023-05-02T00:24:49.431Z,88.53
2023-05-02T00:25:49.404Z,88.08
2023-05-02T00:26:49.408Z,88.18
2023-05-02T00:27:49.400Z,88.08
2023-05-02T00:28:49.379Z,87.98
2023-05-02T00:29:49.384Z,87.98
2023-05-02T00:30:49.530Z,87.98
2023-05-02T00:31:49.335Z,87.88
2023-05-02T00:32:49.404Z,88.73
2023-05-02T00:33:49.325Z,88.39
2023-05-02T00:34:49.327Z,88.39
2023-05-02T00:35:49.311Z,88.28
2023-05-02T00:36:49.290Z,88.49
2023-05-02T00:37:49.272Z,88.43
2023-05-02T00:38:49.284Z,88.79
2023-05-02T00:39:49.263Z,88.93
2023-05-02T00:40:49.267Z,89.00
2023-05-02T00:41:49.226Z,89.10
2023-05-02T00:42:49.220Z,89.14
2023-05-02T00:43:49.204Z,89.20
2023-05-02T00:44:49.209Z,89.10
2023-05-02T00:45:49.194Z,89.00
2023-05-02T00:46:49.293Z,89.10
2023-05-02T00:47:49.283Z,89.40
2023-05-02T00:48:49.173Z,88.79
2023-05-02T00:49:49.146Z,88.18
2023-05-02T00:50:49.139Z,89.20
2023-05-02T00:51:49.126Z,89.10
2023-05-02T00:52:49.108Z,89.00
2023-05-02T00:53:49.093Z,88.90
2023-05-02T00:54:49.105Z,89.00
2023-05-02T00:55:49.071Z,88.69
2023-05-02T00:56:49.061Z,88.49
2023-05-02T00:57:49.066Z,88.59
2023-05-02T00:58:49.052Z,88.39
2023-05-02T00:59:49.027Z,88.12
2023-05-02T01:00:49.023Z,88.32
2023-05-02T01:01:49.037Z,88.63
2023-05-02T01:02:49.245Z,88.39
2023-05-02T01:03:49.101Z,88.84
2023-05-02T01:04:48.973Z,89.25
2023-05-02T01:05:48.956Z,89.10
2023-05-02T01:06:48.993Z,89.20
2023-05-02T01:07:48.952Z,89.00
2023-05-02T01:08:48.940Z,89.20
2023-05-02T01:09:48.921Z,88.90
2023-05-02T01:10:48.942Z,89.10
2023-05-02T01:11:48.912Z,89.20
2023-05-02T01:12:48.892Z,89.20
2023-05-02T01:13:48.881Z,88.90
2023-05-02T01:14:48.862Z,89.10
2023-05-02T01:15:48.970Z,89.00
2023-05-02T01:16:48.836Z,89.10
2023-05-02T01:17:48.844Z,89.10
2023-05-02T01:18:48.862Z,88.85
2023-05-02T01:19:48.802Z,88.90
2023-05-02T01:20:48.791Z,89.40
2023-05-02T01:21:48.796Z,88.79
2023-05-02T01:22:48.776Z,88.39
2023-05-02T01:23:48.773Z,88.90
2023-05-02T01:24:48.777Z,88.28
2023-05-02T01:25:48.754Z,89.10
2023-05-02T01:26:48.733Z,89.00
2023-05-02T01:27:48.712Z,89.00
2023-05-02T01:28:48.704Z,89.04
2023-05-02T01:29:48.688Z,89.00
2023-05-02T01:30:48.701Z,89.25
2023-05-02T01:31:48.783Z,89.25
2023-05-02T01:32:48.733Z,89.04
2023-05-02T01:33:48.646Z,89.04
2023-05-02T01:34:48.662Z,88.63
2023-05-02T01:35:48.622Z,88.93
2023-05-02T01:36:48.634Z,88.79
2023-05-02T01:37:48.622Z,89.00
2023-05-02T01:38:48.605Z,88.49
2023-05-02T01:39:48.592Z,88.90
2023-05-02T01:40:48.573Z,88.90
2023-05-02T01:41:48.559Z,89.00
2023-05-02T01:42:48.587Z,89.20
2023-05-02T01:43:48.552Z,89.30
2023-05-02T01:44:48.548Z,88.90
2023-05-02T01:45:48.515Z,88.39
2023-05-02T01:46:48.532Z,88.28
2023-05-02T01:47:48.515Z,88.08
2023-05-02T01:48:48.492Z,88.59
2023-05-02T01:49:48.487Z,88.39
2023-05-02T01:50:48.501Z,88.18
2023-05-02T01:51:48.454Z,88.79
2023-05-02T01:52:48.440Z,88.18
2023-05-02T01:53:48.452Z,88.59
2023-05-02T01:54:48.441Z,88.79
2023-05-02T01:55:48.405Z,88.49
2023-05-02T01:56:48.413Z,88.39
2023-05-02T01:57:48.385Z,88.69
2023-05-02T01:58:48.382Z,88.59
2023-05-02T01:59:48.399Z,88.49
2023-05-02T02:00:48.377Z,88.69
2023-05-02T02:01:48.341Z,88.49
2023-05-02T02:02:48.352Z,88.39
2023-05-02T02:03:48.381Z,88.28
2023-05-02T02:04:48.545Z,88.79
2023-05-02T02:05:48.297Z,89.04
2023-05-02T02:06:48.549Z,88.63
2023-05-02T02:07:48.273Z,88.93
2023-05-02T02:08:48.266Z,89.45
2023-05-02T02:09:48.279Z,90.06
2023-05-02T02:10:48.268Z,89.86
2023-05-02T02:11:48.249Z,90.06
2023-05-02T02:12:48.257Z,90.16
2023-05-02T02:13:48.207Z,90.47
2023-05-02T02:14:48.246Z,90.06
2023-05-02T02:15:48.265Z,90.06
2023-05-02T02:16:48.224Z,90.16
2023-05-02T02:17:48.233Z,90.16
2023-05-02T02:18:48.176Z,90.57
2023-05-02T02:19:48.169Z,90.42
2023-05-02T02:20:48.150Z,90.47
2023-05-02T02:21:48.164Z,90.06
2023-05-02T02:22:48.172Z,90.67
2023-05-02T02:23:48.107Z,90.57
2023-05-02T02:24:48.089Z,90.67
2023-05-02T02:25:48.072Z,91.08
2023-05-02T02:26:48.077Z,91.08
2023-05-02T02:27:48.083Z,90.98
2023-05-02T02:28:48.042Z,91.08
2023-05-02T02:29:48.035Z,90.98
2023-05-02T02:30:48.069Z,91.18
2023-05-02T02:31:48.010Z,91.89
2023-05-02T02:32:48.075Z,91.28
2023-05-02T02:33:48.010Z,91.18
2023-05-02T02:34:47.977Z,91.28
2023-05-02T02:35:47.968Z,91.59
2023-05-02T02:36:47.968Z,91.59
2023-05-02T02:37:47.944Z,91.49
2023-05-02T02:38:47.949Z,91.69
2023-05-02T02:39:47.917Z,91.28
2023-05-02T02:40:47.910Z,92.10
2023-05-02T02:41:47.890Z,92.10
2023-05-02T02:42:47.963Z,92.16
2023-05-02T02:43:47.870Z,92.20
2023-05-02T02:44:47.864Z,92.10
2023-05-02T02:45:47.917Z,92.10
2023-05-02T02:46:48.008Z,92.20
2023-05-02T02:47:47.859Z,92.30
2023-05-02T02:48:47.828Z,92.20
2023-05-02T02:49:47.805Z,92.41
2023-05-02T02:50:47.797Z,92.50
2023-05-02T02:51:47.795Z,92.71
2023-05-02T02:52:47.779Z,92.50
2023-05-02T02:53:47.781Z,93.32
2023-05-02T02:54:47.763Z,93.16
2023-05-02T02:55:47.759Z,93.16
2023-05-02T02:56:47.732Z,93.16
2023-05-02T02:57:47.719Z,93.67
2023-05-02T02:58:47.728Z,93.43
2023-05-02T02:59:47.690Z,93.88
2023-05-02T03:00:47.672Z,93.57
2023-05-02T03:01:47.680Z,93.98
2023-05-02T03:02:47.708Z,93.57
2023-05-02T03:03:47.718Z,93.88
2023-05-02T03:04:47.631Z,93.88
2023-05-02T03:05:47.653Z,94.38
2023-05-02T03:06:47.746Z,93.98
2023-05-02T03:07:47.605Z,94.08
2023-05-02T03:08:47.585Z,94.70
2023-05-02T03:09:47.634Z,93.77
2023-05-02T03:10:47.591Z,94.59
2023-05-02T03:11:47.566Z,94.70
2023-05-02T03:12:47.544Z,93.98
2023-05-02T03:13:47.537Z,94.29
2023-05-02T03:14:47.534Z,94.29
2023-05-02T03:15:47.550Z,94.29
2023-05-02T03:16:47.498Z,94.70
2023-05-02T03:17:47.579Z,94.79
2023-05-02T03:18:47.479Z,94.49
2023-05-02T03:19:47.506Z,94.29
2023-05-02T03:20:47.463Z,94.38
2023-05-02T03:21:47.475Z,94.90
2023-05-02T03:22:47.444Z,94.49
2023-05-02T03:23:47.418Z,93.77
2023-05-02T03:24:47.424Z,94.08
2023-05-02T03:25:47.412Z,93.88
2023-05-02T03:26:47.410Z,93.92
2023-05-02T03:27:47.389Z,93.92
2023-05-02T03:28:47.364Z,94.23
2023-05-02T03:29:47.358Z,94.12
2023-05-02T03:30:47.365Z,94.43
2023-05-02T03:31:47.403Z,94.23
2023-05-02T03:32:47.345Z,94.74
2023-05-02T03:33:47.319Z,94.64
2023-05-02T03:34:47.300Z,94.74
2023-05-02T03:35:47.326Z,94.33
2023-05-02T03:36:47.276Z,94.17
2023-05-02T03:37:47.276Z,94.17
2023-05-02T03:38:47.258Z,94.17
2023-05-02T03:39:47.251Z,94.07
2023-05-02T03:40:47.237Z,94.07
2023-05-02T03:41:47.237Z,94.01
2023-05-02T03:42:47.233Z,94.52
2023-05-02T03:43:47.196Z,95.03
2023-05-02T03:44:47.186Z,94.82
2023-05-02T03:45:48.796Z,94.32
2023-05-02T03:46:47.184Z,94.62
2023-05-02T03:47:47.228Z,94.42
2023-05-02T03:48:47.146Z,94.82
2023-05-02T03:49:47.127Z,94.82
2023-05-02T03:50:47.133Z,94.62
2023-05-02T03:51:47.136Z,94.15
2023-05-02T03:52:47.106Z,94.52
2023-05-02T03:53:47.087Z,94.11
2023-05-02T03:54:47.078Z,95.18
2023-05-02T03:55:47.088Z,94.52
2023-05-02T03:56:47.090Z,93.85
2023-05-02T03:57:47.051Z,94.77
2023-05-02T03:58:47.071Z,94.56
2023-05-02T03:59:47.018Z,94.11
2023-05-02T04:00:47.028Z,94.21
2023-05-02T04:01:47.050Z,93.60
2023-05-02T04:02:47.104Z,94.67
2023-05-02T04:03:47.097Z,94.36
2023-05-02T04:04:47.572Z,93.85
2023-05-02T04:05:46.958Z,93.85
2023-05-02T04:06:47.196Z,93.65
2023-05-02T04:07:46.930Z,93.44
2023-05-02T04:08:46.938Z,93.54
2023-05-02T04:09:46.926Z,93.65
2023-05-02T04:10:46.896Z,94.06
2023-05-02T04:11:46.894Z,93.40
2023-05-02T04:12:46.875Z,93.24
2023-05-02T04:13:46.861Z,93.85
2023-05-02T04:14:46.875Z,93.33
2023-05-02T04:15:46.852Z,93.13
2023-05-02T04:16:46.860Z,93.44
2023-05-02T04:17:46.870Z,93.33
2023-05-02T04:18:46.811Z,93.65
2023-05-02T04:19:46.811Z,93.44
2023-05-02T04:20:46.796Z,93.44
2023-05-02T04:21:46.791Z,93.09
2023-05-02T04:22:46.766Z,93.19
2023-05-02T04:23:46.750Z,93.40
2023-05-02T04:24:46.740Z,93.40
2023-05-02T04:25:46.736Z,93.60
2023-05-02T04:26:46.720Z,93.40
2023-05-02T04:27:46.718Z,92.58
2023-05-02T04:28:46.699Z,92.68
2023-05-02T04:29:46.682Z,92.47
2023-05-02T04:30:46.742Z,92.58
2023-05-02T04:31:46.680Z,92.68
2023-05-02T04:32:46.679Z,92.37
2023-05-02T04:33:46.655Z,92.58
2023-05-02T04:34:46.640Z,92.68
2023-05-02T04:35:46.615Z,92.17
2023-05-02T04:36:46.612Z,92.17
2023-05-02T04:37:46.620Z,92.17
2023-05-02T04:38:46.591Z,92.72
2023-05-02T04:39:46.570Z,92.21
2023-05-02T04:40:46.568Z,92.27
2023-05-02T04:41:46.555Z,92.52
2023-05-02T04:42:46.543Z,92.52
2023-05-02T04:43:46.549Z,91.91
2023-05-02T04:44:46.516Z,91.86
2023-05-02T04:45:46.500Z,92.42
2023-05-02T04:46:46.647Z,92.52
2023-05-02T04:47:46.538Z,92.32
2023-05-02T04:48:46.513Z,92.32
2023-05-02T04:49:46.471Z,92.21
2023-05-02T04:50:46.444Z,92.52
2023-05-02T04:51:46.432Z,92.52
2023-05-02T04:52:46.445Z,91.60
2023-05-02T04:53:46.434Z,92.01
2023-05-02T04:54:46.401Z,92.32
2023-05-02T04:55:46.397Z,92.72
2023-05-02T04:56:46.394Z,92.32
2023-05-02T04:57:46.365Z,92.11
2023-05-02T04:58:46.387Z,91.70
2023-05-02T04:59:46.348Z,92.01
2023-05-02T05:00:46.343Z,92.01
2023-05-02T05:01:46.428Z,92.15
2023-05-02T05:02:46.423Z,91.91
2023-05-02T05:03:46.360Z,91.80
2023-05-02T05:04:46.292Z,91.80
2023-05-02T05:05:46.361Z,92.01
2023-05-02T05:06:46.321Z,91.70
2023-05-02T05:07:46.269Z,91.64
2023-05-02T05:08:46.254Z,90.88
2023-05-02T05:09:46.232Z,90.52
2023-05-02T05:10:46.235Z,90.41
2023-05-02T05:11:46.227Z,90.92
2023-05-02T05:12:46.215Z,90.62
2023-05-02T05:13:46.215Z,90.92
2023-05-02T05:14:46.181Z,90.92
2023-05-02T05:15:46.207Z,91.33
2023-05-02T05:16:46.197Z,91.54
2023-05-02T05:17:46.175Z,91.54
2023-05-02T05:18:46.164Z,91.39
2023-05-02T05:19:46.160Z,91.64
2023-05-02T05:20:46.130Z,91.74
2023-05-02T05:21:46.115Z,92.19
2023-05-02T05:22:46.090Z,92.05
2023-05-02T05:23:46.251Z,91.74
2023-05-02T05:24:46.067Z,91.78
2023-05-02T05:25:46.090Z,91.99
2023-05-02T05:26:46.046Z,91.07
2023-05-02T05:27:46.031Z,91.63
2023-05-02T05:28:46.038Z,91.26
2023-05-02T05:29:46.027Z,91.46
2023-05-02T05:30:46.000Z,91.97
2023-05-02T05:31:46.053Z,91.87
2023-05-02T05:32:46.011Z,91.71
2023-05-02T05:33:45.999Z,91.91
2023-05-02T05:34:45.996Z,92.53
2023-05-02T05:35:45.953Z,92.74
2023-05-02T05:36:45.934Z,92.12
2023-05-02T05:37:45.948Z,91.96
2023-05-02T05:38:45.910Z,91.96
2023-05-02T05:39:45.899Z,92.06
2023-05-02T05:40:45.890Z,92.43
2023-05-02T05:41:45.901Z,91.96
2023-05-02T05:42:45.872Z,92.36
2023-05-02T05:43:45.856Z,92.36
2023-05-02T05:44:45.846Z,91.59
2023-05-02T05:45:45.855Z,91.80
2023-05-02T05:46:45.871Z,91.59
2023-05-02T05:47:45.815Z,91.18
2023-05-02T05:48:45.814Z,92.06
2023-05-02T05:49:45.803Z,92.06
2023-05-02T05:50:45.813Z,92.06
2023-05-02T05:51:45.769Z,92.16
2023-05-02T05:52:45.782Z,92.16
2023-05-02T05:53:45.739Z,92.16
2023-05-02T05:54:45.736Z,92.06
2023-05-02T05:55:45.719Z,92.06
2023-05-02T05:56:45.716Z,92.27
2023-05-02T05:57:45.711Z,92.00
2023-05-02T05:58:45.706Z,91.59
2023-05-02T05:59:45.688Z,91.55
2023-05-02T06:00:45.688Z,91.96
2023-05-02T06:01:45.666Z,90.93
2023-05-02T06:02:45.805Z,91.03
2023-05-02T06:03:45.726Z,91.03
2023-05-02T06:04:45.683Z,90.73
2023-05-02T06:05:45.607Z,90.93
2023-05-02T06:06:45.752Z,90.52
2023-05-02T06:07:45.603Z,90.93
2023-05-02T06:08:45.588Z,90.32
2023-05-02T06:09:45.575Z,89.70
2023-05-02T06:10:45.588Z,89.54
2023-05-02T06:11:45.546Z,89.64
2023-05-02T06:12:47.151Z,89.43
2023-05-02T06:13:45.566Z,89.23
2023-05-02T06:14:45.532Z,89.23
2023-05-02T06:15:45.544Z,89.84
2023-05-02T06:16:45.499Z,89.54
2023-05-02T06:17:45.511Z,89.64
2023-05-02T06:18:45.487Z,89.37
2023-05-02T06:19:45.467Z,89.27
2023-05-02T06:20:45.447Z,89.07
2023-05-02T06:21:45.435Z,89.75
2023-05-02T06:22:45.447Z,89.37
2023-05-02T06:23:45.440Z,90.05
2023-05-02T06:24:45.420Z,89.89
2023-05-02T06:25:45.391Z,89.54
2023-05-02T06:26:45.380Z,89.78
2023-05-02T06:27:45.371Z,89.03
2023-05-02T06:28:45.358Z,88.86
2023-05-02T06:29:45.373Z,89.07
2023-05-02T06:30:45.345Z,89.27
2023-05-02T06:31:45.371Z,89.43
2023-05-02T06:32:45.358Z,89.64
2023-05-02T06:33:45.296Z,89.13
2023-05-02T06:34:45.315Z,89.07
2023-05-02T06:35:45.273Z,88.92
2023-05-02T06:36:45.276Z,89.64
2023-05-02T06:37:45.264Z,89.64
2023-05-02T06:38:45.268Z,89.64
2023-05-02T06:39:45.228Z,89.54
2023-05-02T06:40:45.269Z,89.54
2023-05-02T06:41:45.206Z,89.75
2023-05-02T06:42:45.205Z,89.54
2023-05-02T06:43:45.221Z,89.13
2023-05-02T06:44:45.181Z,89.33
2023-05-02T06:45:45.184Z,89.23
2023-05-02T06:46:45.218Z,88.92
2023-05-02T06:47:45.187Z,88.04
2023-05-02T06:48:45.130Z,88.24
2023-05-02T06:49:45.127Z,88.24
2023-05-02T06:50:45.108Z,88.24
2023-05-02T06:51:45.112Z,88.76
2023-05-02T06:52:45.089Z,88.39
2023-05-02T06:53:45.076Z,88.45
2023-05-02T06:54:45.090Z,87.94
2023-05-02T06:55:45.079Z,87.94
2023-05-02T06:56:45.057Z,88.14
2023-05-02T06:57:45.028Z,88.39
2023-05-02T06:58:45.021Z,88.59
2023-05-02T06:59:45.003Z,89.11
2023-05-02T07:00:45.056Z,89.21
2023-05-02T07:01:45.023Z,88.90
2023-05-02T07:02:45.016Z,88.90
2023-05-02T07:03:44.977Z,88.90
2023-05-02T07:04:44.985Z,89.01
2023-05-02T07:05:44.939Z,88.80
2023-05-02T07:06:44.984Z,88.86
2023-05-02T07:07:44.958Z,89.07
2023-05-02T07:08:44.908Z,89.31
2023-05-02T07:09:44.900Z,89.58
2023-05-02T07:10:44.909Z,87.84
2023-05-02T07:11:44.872Z,87.53
2023-05-02T07:12:44.874Z,87.53
2023-05-02T07:13:44.864Z,87.43
2023-05-02T07:14:44.857Z,86.44
2023-05-02T07:15:44.840Z,85.00
2023-05-02T07:16:44.863Z,85.06
2023-05-02T07:17:44.850Z,85.17
2023-05-02T07:18:45.013Z,84.96
2023-05-02T07:19:45.744Z,84.45
2023-05-02T07:20:44.786Z,84.66
2023-05-02T07:21:44.757Z,83.83
2023-05-02T07:22:44.771Z,84.00
2023-05-02T07:23:44.768Z,83.18
2023-05-02T07:24:44.739Z,81.95
2023-05-02T07:25:44.736Z,83.07
2023-05-02T07:26:44.726Z,82.42
2023-05-02T07:27:44.701Z,81.54
2023-05-02T07:28:44.755Z,80.41
2023-05-02T07:29:44.676Z,80.51
2023-05-02T07:30:44.658Z,81.43
2023-05-02T07:31:44.734Z,81.40
2023-05-02T07:32:44.660Z,80.88
2023-05-02T07:33:44.676Z,79.75
2023-05-02T07:34:44.616Z,80.37
2023-05-02T07:35:44.607Z,80.85
2023-05-02T07:36:44.597Z,80.68
2023-05-02T07:37:44.592Z,80.95
2023-05-02T07:38:44.576Z,81.05
2023-05-02T07:39:44.582Z,80.85
2023-05-02T07:40:44.575Z,80.91
2023-05-02T07:41:44.553Z,80.40
2023-05-02T07:42:44.558Z,79.85
2023-05-02T07:43:44.520Z,79.75
2023-05-02T07:44:44.517Z,79.27
2023-05-02T07:45:44.524Z,79.03
2023-05-02T07:46:44.546Z,79.44
2023-05-02T07:47:44.502Z,79.03
2023-05-02T07:48:44.469Z,78.52
2023-05-02T07:49:44.462Z,77.60
2023-05-02T07:50:44.506Z,78.35
2023-05-02T07:51:44.437Z,78.35
2023-05-02T07:52:44.456Z,78.25
2023-05-02T07:53:44.408Z,77.23
2023-05-02T07:54:44.397Z,78.15
2023-05-02T07:55:44.388Z,78.45
2023-05-02T07:56:44.389Z,78.15
2023-05-02T07:57:44.398Z,78.31
2023-05-02T07:58:44.398Z,78.42
2023-05-02T07:59:44.342Z,77.70
2023-05-02T08:00:44.328Z,77.19
2023-05-02T08:01:44.330Z,77.02
2023-05-02T08:02:44.373Z,77.19
2023-05-02T08:03:44.450Z,77.12
2023-05-02T08:04:44.314Z,77.53
2023-05-02T08:05:44.280Z,77.50
2023-05-02T08:06:44.311Z,76.27
2023-05-02T08:07:44.300Z,76.40
2023-05-02T08:08:44.258Z,76.51
2023-05-02T08:09:44.233Z,77.19
2023-05-02T08:10:44.244Z,77.29
2023-05-02T08:11:44.209Z,77.05
2023-05-02T08:12:44.197Z,76.64
2023-05-02T08:13:44.200Z,75.62
2023-05-02T08:14:44.226Z,75.93
2023-05-02T08:15:44.200Z,75.10
2023-05-02T08:16:46.198Z,74.90
2023-05-02T08:17:44.231Z,76.84
2023-05-02T08:18:44.130Z,75.48
2023-05-02T08:19:44.163Z,74.29
2023-05-02T08:20:44.115Z,72.62
2023-05-02T08:21:44.097Z,71.94
2023-05-02T08:22:44.085Z,72.21
2023-05-02T08:23:44.082Z,73.54
2023-05-02T08:24:44.089Z,73.85
2023-05-02T08:25:44.082Z,73.40
2023-05-02T08:26:44.065Z,71.80
2023-05-02T08:27:44.035Z,71.56
2023-05-02T08:28:44.015Z,71.77
2023-05-02T08:29:44.017Z,70.71
2023-05-02T08:30:44.013Z,71.42
2023-05-02T08:31:44.091Z,70.10
2023-05-02T08:32:44.027Z,67.47
2023-05-02T08:33:44.022Z,69.24
2023-05-02T08:34:43.995Z,70.13
2023-05-02T08:35:43.955Z,70.03
2023-05-02T08:36:43.951Z,69.69
2023-05-02T08:37:43.935Z,69.11
2023-05-02T08:38:43.920Z,68.36
2023-05-02T08:39:43.914Z,69.76
2023-05-02T08:40:43.922Z,69.65
2023-05-02T08:41:43.873Z,69.11
2023-05-02T08:42:43.922Z,68.50
2023-05-02T08:43:43.873Z,68.23
2023-05-02T08:44:43.837Z,66.97
2023-05-02T08:45:43.834Z,66.36
2023-05-02T08:46:43.944Z,67.48
2023-05-02T08:47:43.825Z,67.89
2023-05-02T08:48:43.813Z,68.40
2023-05-02T08:49:43.802Z,67.79
2023-05-02T08:50:43.766Z,67.65
2023-05-02T08:51:43.764Z,68.06
2023-05-02T08:52:43.760Z,67.55
2023-05-02T08:53:43.740Z,65.64
2023-05-02T08:54:43.737Z,65.54
2023-05-02T08:55:44.063Z,65.37
2023-05-02T08:56:43.699Z,66.77
2023-05-02T08:57:43.701Z,67.48
2023-05-02T08:58:43.695Z,68.30
2023-05-02T08:59:43.674Z,67.85
2023-05-02T09:00:43.761Z,67.14
2023-05-02T09:01:43.669Z,65.31
2023-05-02T09:02:43.682Z,65.54
2023-05-02T09:03:43.662Z,66.05
2023-05-02T09:04:43.651Z,65.84
2023-05-02T09:05:43.609Z,65.34
2023-05-02T09:06:43.612Z,64.72
2023-05-02T09:07:43.583Z,65.44
2023-05-02T09:08:43.586Z,65.54
2023-05-02T09:09:43.583Z,65.23
2023-05-02T09:10:43.549Z,66.15
2023-05-02T09:11:43.539Z,67.38
2023-05-02T09:12:43.528Z,67.27
2023-05-02T09:13:43.713Z,65.44
2023-05-02T09:14:43.514Z,63.73
2023-05-02T09:15:43.512Z,64.99
2023-05-02T09:16:43.619Z,65.40
2023-05-02T09:17:43.485Z,66.01
2023-05-02T09:18:43.514Z,65.09
2023-05-02T09:19:43.463Z,64.89
2023-05-02T09:20:43.432Z,65.43
2023-05-02T09:21:43.427Z,64.92
2023-05-02T09:22:43.422Z,65.30
2023-05-02T09:23:43.404Z,63.89
2023-05-02T09:24:43.400Z,63.66
2023-05-02T09:25:43.380Z,63.35
2023-05-02T09:26:43.365Z,62.74
2023-05-02T09:27:43.361Z,63.56
2023-05-02T09:28:43.364Z,65.67
2023-05-02T09:29:43.354Z,64.55
2023-05-02T09:30:43.351Z,65.16
2023-05-02T09:31:54.928Z,64.52
2023-05-02T09:32:44.310Z,64.72
2023-05-02T09:33:43.294Z,64.49
2023-05-02T09:34:43.336Z,64.28
2023-05-02T09:35:43.277Z,64.49
2023-05-02T09:36:43.276Z,63.47
2023-05-02T09:37:43.248Z,62.65
2023-05-02T09:38:43.242Z,61.73
2023-05-02T09:39:43.239Z,61.63
2023-05-02T09:40:43.226Z,62.21
2023-05-02T09:41:43.208Z,63.23
2023-05-02T09:42:43.188Z,62.76
2023-05-02T09:43:43.179Z,62.55
2023-05-02T09:44:43.173Z,63.26
2023-05-02T09:45:43.223Z,63.67
2023-05-02T09:46:43.402Z,63.06
2023-05-02T09:47:43.156Z,63.16
2023-05-02T09:48:43.121Z,61.05
2023-05-02T09:49:43.120Z,63.70
2023-05-02T09:50:43.132Z,64.93
2023-05-02T09:51:43.089Z,64.42
2023-05-02T09:52:43.094Z,64.59
2023-05-02T09:53:43.067Z,65.25
2023-05-02T09:54:43.090Z,59.94
2023-05-02T09:55:43.049Z,59.84
2023-05-02T09:56:43.038Z,59.23
2023-05-02T09:57:43.025Z,61.98
2023-05-02T09:58:43.021Z,60.14
2023-05-02T09:59:43.021Z,61.27
2023-05-02T10:00:43.001Z,62.16
2023-05-02T10:01:43.080Z,62.36
2023-05-02T10:02:43.245Z,62.05
2023-05-02T10:03:42.958Z,62.74
2023-05-02T10:04:43.151Z,63.15
2023-05-02T10:05:42.950Z,62.92
2023-05-02T10:06:43.049Z,62.13
2023-05-02T10:07:42.915Z,60.50
2023-05-02T10:08:42.897Z,61.29
2023-05-02T10:09:42.904Z,60.70
2023-05-02T10:10:42.894Z,63.45
2023-05-02T10:11:42.870Z,60.22
2023-05-02T10:12:42.855Z,61.98
2023-05-02T10:13:42.845Z,61.78
2023-05-02T10:14:42.834Z,60.99
2023-05-02T10:15:42.866Z,62.42
2023-05-02T10:16:42.824Z,61.71
2023-05-02T10:17:42.841Z,61.40
2023-05-02T10:18:42.792Z,61.53
2023-05-02T10:19:42.787Z,61.73
2023-05-02T10:20:42.766Z,63.67
2023-05-02T10:21:42.783Z,62.96
2023-05-02T10:22:42.768Z,63.09
2023-05-02T10:23:42.737Z,61.76
2023-05-02T10:24:42.722Z,62.30
2023-05-02T10:25:42.739Z,63.81
2023-05-02T10:26:42.710Z,61.38
2023-05-02T10:27:42.720Z,62.92
2023-05-02T10:28:42.681Z,63.32
2023-05-02T10:29:42.674Z,63.60
2023-05-02T10:30:42.681Z,62.58
2023-05-02T10:31:44.288Z,62.78
2023-05-02T10:32:42.667Z,63.49
2023-05-02T10:33:42.636Z,62.27
2023-05-02T10:34:42.678Z,63.29
2023-05-02T10:35:42.603Z,62.58
2023-05-02T10:36:42.620Z,62.68
2023-05-02T10:37:42.582Z,63.60
2023-05-02T10:38:42.599Z,64.01
2023-05-02T10:39:42.569Z,63.60
2023-05-02T10:40:42.553Z,63.81
2023-05-02T10:41:42.534Z,63.49
2023-05-02T10:42:42.539Z,60.97
2023-05-02T10:43:42.514Z,62.20
2023-05-02T10:44:42.498Z,61.92
2023-05-02T10:45:42.529Z,61.72
2023-05-02T10:46:42.510Z,62.63
2023-05-02T10:47:42.510Z,62.74
2023-05-02T10:48:42.459Z,63.66
2023-05-02T10:49:42.456Z,65.50
2023-05-02T10:50:42.451Z,65.50
2023-05-02T10:51:42.456Z,65.47
2023-05-02T10:52:42.432Z,65.57
2023-05-02T10:53:42.405Z,65.06
2023-05-02T10:54:42.407Z,65.26
2023-05-02T10:55:42.380Z,64.65
2023-05-02T10:56:42.361Z,63.43
2023-05-02T10:57:42.379Z,64.55
2023-05-02T10:58:42.340Z,64.72
2023-05-02T10:59:42.340Z,63.63
2023-05-02T11:00:42.344Z,62.92
2023-05-02T11:01:42.314Z,63.12
2023-05-02T11:02:42.383Z,64.65
2023-05-02T11:03:42.287Z,64.34
2023-05-02T11:04:42.280Z,63.60
2023-05-02T11:05:42.265Z,63.53
2023-05-02T11:06:42.281Z,63.70
2023-05-02T11:07:42.254Z,62.27
2023-05-02T11:08:42.228Z,64.42
2023-05-02T11:09:42.235Z,64.72
2023-05-02T11:10:42.243Z,62.27
2023-05-02T11:11:42.231Z,61.76
2023-05-02T11:12:42.201Z,62.37
2023-05-02T11:13:42.184Z,63.19
2023-05-02T11:14:42.163Z,63.09
2023-05-02T11:15:42.186Z,62.17
2023-05-02T11:16:42.188Z,62.37
2023-05-02T11:17:42.147Z,63.37
2023-05-02T11:18:42.119Z,61.94
2023-05-02T11:19:42.114Z,60.92
2023-05-02T11:20:42.110Z,61.32
2023-05-02T11:21:42.109Z,62.45
2023-05-02T11:22:42.082Z,62.21
2023-05-02T11:23:42.072Z,62.32
2023-05-02T11:24:42.054Z,61.71
2023-05-02T11:25:42.080Z,62.49
2023-05-02T11:26:42.050Z,63.51
2023-05-02T11:27:42.023Z,61.98
2023-05-02T11:28:42.047Z,61.60
2023-05-02T11:29:42.000Z,61.68
2023-05-02T11:30:41.986Z,63.41
2023-05-02T11:31:42.016Z,59.77
2023-05-02T11:32:41.975Z,60.38
2023-05-02T11:33:41.952Z,62.39
2023-05-02T11:34:41.949Z,60.86
2023-05-02T11:35:41.932Z,58.14
2023-05-02T11:36:41.944Z,59.16
2023-05-02T11:37:41.912Z,60.28
2023-05-02T11:38:41.899Z,60.25
2023-05-02T11:39:41.904Z,60.76
2023-05-02T11:40:41.887Z,60.55
2023-05-02T11:41:41.882Z,60.76
2023-05-02T11:42:41.900Z,59.87
2023-05-02T11:43:41.849Z,59.56
2023-05-02T11:44:41.834Z,59.56
2023-05-02T11:45:41.865Z,59.46
2023-05-02T11:46:41.960Z,59.87
2023-05-02T11:47:41.829Z,59.87
2023-05-02T11:48:41.791Z,59.26
2023-05-02T11:49:41.781Z,59.56
2023-05-02T11:50:46.662Z,57.42
2023-05-02T11:51:42.763Z,58.44
2023-05-02T11:52:41.763Z,59.66
2023-05-02T11:53:41.734Z,58.64
2023-05-02T11:54:41.728Z,58.92
2023-05-02T11:55:41.709Z,57.21
2023-05-02T11:56:41.699Z,59.74
2023-05-02T11:57:41.738Z,60.80
2023-05-02T11:58:41.717Z,60.88
2023-05-02T11:59:41.665Z,60.88
2023-05-02T12:00:41.660Z,60.16
2023-05-02T12:01:41.644Z,59.12
2023-05-02T12:02:41.771Z,59.22
2023-05-02T12:03:41.970Z,59.98
2023-05-02T12:04:41.616Z,59.47
2023-05-02T12:05:41.631Z,59.75
2023-05-02T12:06:41.650Z,57.00
2023-05-02T12:07:41.579Z,57.18
2023-05-02T12:08:41.599Z,57.81
2023-05-02T12:09:41.596Z,53.75
2023-05-02T12:10:41.550Z,53.93
2023-05-02T12:11:41.552Z,52.10
2023-05-02T12:12:41.531Z,56.16
2023-05-02T12:13:41.511Z,53.72
2023-05-02T12:14:41.523Z,53.63
2023-05-02T12:15:41.558Z,55.73
2023-05-02T12:16:41.502Z,55.12
2023-05-02T12:17:41.513Z,54.92
2023-05-02T12:18:41.474Z,53.78
2023-05-02T12:19:41.475Z,53.88
2023-05-02T12:20:41.444Z,52.84
2023-05-02T12:21:41.437Z,53.65
2023-05-02T12:22:41.416Z,50.63
2023-05-02T12:23:41.400Z,51.54
2023-05-02T12:24:41.393Z,53.47
2023-05-02T12:25:41.403Z,54.36
2023-05-02T12:26:41.369Z,54.16
2023-05-02T12:27:41.367Z,53.85
2023-05-02T12:28:41.346Z,54.08
2023-05-02T12:29:41.335Z,52.36
2023-05-02T12:30:41.348Z,52.25
2023-05-02T12:31:41.389Z,52.25
2023-05-02T12:32:41.340Z,53.98
2023-05-02T12:33:41.303Z,56.18
2023-05-02T12:34:41.279Z,55.07
2023-05-02T12:35:41.267Z,55.15
2023-05-02T12:36:41.256Z,50.63
2023-05-02T12:37:41.260Z,52.66
2023-05-02T12:38:41.231Z,50.96
2023-05-02T12:39:41.243Z,49.05
2023-05-02T12:40:41.223Z,50.98
2023-05-02T12:41:41.212Z,53.42
2023-05-02T12:42:41.188Z,54.03
2023-05-02T12:43:41.197Z,51.72
2023-05-02T12:44:41.167Z,51.21
2023-05-02T12:45:41.173Z,52.84
2023-05-02T12:46:41.180Z,54.08
2023-05-02T12:47:41.178Z,51.77
2023-05-02T12:48:41.134Z,52.17
2023-05-02T12:49:41.134Z,56.07
2023-05-02T12:50:41.101Z,55.96
2023-05-02T12:51:41.253Z,54.57
2023-05-02T12:52:41.074Z,55.48